Time;durP1;ratioP1;P1;durP2;ratioP2;P2;SDS_P1;SDS_P2;PMS_P1;PMS_P2;Temp;Humidity;BMP_temperature;BMP_pressure;BME280_temperature;BME280_humidity;BME280_pressure;Samples;Min_cycle;Max_cycle;Signal;HPM_P1;HPM_P2
2022/05/02 06:14:03;;;;;;;4.70;4.13;;;;;;;;;;10753737;27;20396;-85
2022/05/02 06:19:05;;;;;;;4.78;3.88;;;;;;;;;;10660079;27;20498;-86
2022/05/02 06:24:09;;;;;;;5.35;3.40;;;;;;;;;;10650790;28;20044;-85
2022/05/02 06:29:11;;;;;;;4.90;4.40;;;;;;;;;;10661736;27;20039;-88
2022/05/02 06:34:13;;;;;;;5.63;5.05;;;;;;;;;;10667465;27;20062;-86
2022/05/02 06:39:14;;;;;;;7.68;6.05;;;;;;;;;;10667008;27;20018;-87
2022/05/02 06:44:22;;;;;;;8.35;6.38;;;;;;;;;;10639748;27;20077;-87
2022/05/02 06:49:25;;;;;;;8.52;7.15;;;;;;;;;;10622988;27;20023;-87
2022/05/02 06:54:45;;;;;;;8.25;6.10;;;;;;;;;;10626067;28;20432;-87
2022/05/02 06:59:55;;;;;;;6.28;5.18;;;;;;;;;;10627186;27;20023;-87
2022/05/02 07:04:57;;;;;;;6.10;3.90;;;;;;;;;;10626461;28;20031;-87
2022/05/02 07:10:06;;;;;;;5.38;3.80;;;;;;;;;;10627585;27;20031;-82
2022/05/02 07:15:13;;;;;;;5.70;4.22;;;;;;;;;;10603834;28;20026;-83
2022/05/02 07:20:23;;;;;;;8.88;4.78;;;;;;;;;;10601626;28;20023;-83
2022/05/02 07:25:25;;;;;;;6.50;4.70;;;;;;;;;;10604468;28;20028;-82
2022/05/02 07:30:26;;;;;;;6.13;4.28;;;;;;;;;;10621709;28;20107;-83
2022/05/02 07:35:28;;;;;;;6.05;3.80;;;;;;;;;;10602614;28;20023;-79
2022/05/02 07:40:29;;;;;;;6.47;4.22;;;;;;;;;;10593633;28;20024;-80
2022/05/02 07:45:31;;;;;;;5.45;4.00;;;;;;;;;;10595155;28;20023;-79
2022/05/02 07:50:32;;;;;;;6.40;3.90;;;;;;;;;;10622471;28;20038;-78
2022/05/02 07:55:33;;;;;;;7.28;4.43;;;;;;;;;;10635189;28;20115;-82
2022/05/02 08:00:34;;;;;;;8.20;4.10;;;;;;;;;;10612109;28;20537;-80
2022/05/02 08:05:39;;;;;;;5.15;4.10;;;;;;;;;;10603402;28;20095;-80
2022/05/02 08:10:48;;;;;;;5.70;3.97;;;;;;;;;;10600687;28;20395;-80
2022/05/02 08:15:49;;;;;;;7.28;3.90;;;;;;;;;;10600436;28;20015;-78
2022/05/02 08:20:50;;;;;;;4.95;3.72;;;;;;;;;;10599852;28;20023;-81
2022/05/02 08:31:33;;;;;;;7.80;3.88;;;;;;;;;;10605605;28;20482;-80
2022/05/02 08:36:41;;;;;;;4.85;3.50;;;;;;;;;;10602233;28;20097;-80
2022/05/02 08:42:02;;;;;;;4.55;3.55;;;;;;;;;;10607988;28;20044;-80
2022/05/02 08:47:26;;;;;;;5.72;3.58;;;;;;;;;;10582486;28;20040;-79
2022/05/02 08:52:27;;;;;;;8.57;5.85;;;;;;;;;;10595453;28;20092;-79
2022/05/02 08:58:00;;;;;;;13.50;7.72;;;;;;;;;;10598337;28;20078;-81
2022/05/02 09:03:10;;;;;;;4.20;3.28;;;;;;;;;;10551799;28;20039;-80
2022/05/02 09:08:40;;;;;;;5.28;3.83;;;;;;;;;;10600795;28;20030;-79
2022/05/02 09:13:54;;;;;;;4.53;3.80;;;;;;;;;;10603776;28;20104;-79
2022/05/02 09:19:14;;;;;;;8.73;3.95;;;;;;;;;;10600528;28;20484;-79
2022/05/02 09:24:15;;;;;;;7.72;5.80;;;;;;;;;;10602148;28;20032;-80
2022/05/02 09:29:16;;;;;;;5.90;4.70;;;;;;;;;;10596558;28;20432;-81
2022/05/02 09:34:23;;;;;;;5.00;3.88;;;;;;;;;;10591337;28;20039;-81
2022/05/02 09:39:25;;;;;;;12.10;6.28;;;;;;;;;;10595826;28;20079;-84
2022/05/02 09:50:05;;;;;;;4.70;3.80;;;;;;;;;;10598306;28;20028;-85
2022/05/02 10:01:08;;;;;;;7.15;3.47;;;;;;;;;;10595843;28;20035;-80
2022/05/02 10:06:27;;;;;;;7.18;6.05;;;;;;;;;;10598118;28;20028;-84
2022/05/02 10:11:28;;;;;;;8.88;7.38;;;;;;;;;;10598430;28;20079;-85
2022/05/02 10:16:29;;;;;;;5.93;3.90;;;;;;;;;;10607281;28;20019;-83
2022/05/02 10:21:36;;;;;;;7.15;5.32;;;;;;;;;;10611927;28;20087;-84
2022/05/02 10:27:11;;;;;;;6.90;5.05;;;;;;;;;;10605776;28;20041;-84
2022/05/02 10:32:16;;;;;;;8.27;6.63;;;;;;;;;;10567985;28;20089;-83
2022/05/02 10:37:21;;;;;;;5.88;4.50;;;;;;;;;;10593989;28;20028;-83
2022/05/02 10:42:25;;;;;;;9.40;5.82;;;;;;;;;;10594197;28;20019;-81
2022/05/02 10:47:29;;;;;;;6.22;4.07;;;;;;;;;;10594725;28;20031;-81
2022/05/02 10:58:10;;;;;;;8.52;5.70;;;;;;;;;;10601334;28;20023;-82
2022/05/02 11:03:35;;;;;;;7.40;5.72;;;;;;;;;;10604108;28;20027;-83
2022/05/02 11:08:51;;;;;;;9.25;5.50;;;;;;;;;;10563085;28;20054;-83
2022/05/02 11:14:30;;;;;;;10.15;6.65;;;;;;;;;;10604868;28;20036;-83
2022/05/02 11:31:30;;;;;;;7.97;5.82;;;;;;;;;;10598267;28;20364;-82
2022/05/02 11:37:06;;;;;;;10.65;7.72;;;;;;;;;;10594614;28;20031;-87
2022/05/02 11:42:54;;;;;;;8.30;6.50;;;;;;;;;;10505400;28;20086;-87
2022/05/02 11:48:32;;;;;;;7.72;5.65;;;;;;;;;;10492373;28;20032;-87
2022/05/02 11:53:36;;;;;;;15.75;13.60;;;;;;;;;;10285706;28;20062;-87
2022/05/02 12:04:13;;;;;;;6.95;6.25;;;;;;;;;;10302730;28;20039;-87
2022/05/02 12:15:27;;;;;;;7.80;6.53;;;;;;;;;;10336291;28;20051;-83
2022/05/02 12:20:58;;;;;;;13.75;5.90;;;;;;;;;;10320319;28;20038;-83
2022/05/02 12:26:00;;;;;;;8.05;5.65;;;;;;;;;;10473487;28;20056;-82
2022/05/02 12:31:03;;;;;;;6.80;5.82;;;;;;;;;;10612650;28;20020;-83
2022/05/02 12:36:29;;;;;;;6.28;4.97;;;;;;;;;;10602508;28;20035;-86
2022/05/02 12:47:31;;;;;;;7.55;6.68;;;;;;;;;;10603732;28;20024;-87
2022/05/02 12:53:06;;;;;;;7.30;5.47;;;;;;;;;;10586870;28;20471;-87
2022/05/02 13:15:12;;;;;;;7.18;5.40;;;;;;;;;;10592660;28;20067;-86
2022/05/02 13:20:16;;;;;;;8.25;5.38;;;;;;;;;;10601754;28;20055;-86
2022/05/02 13:25:18;;;;;;;8.90;6.18;;;;;;;;;;10606311;28;20501;-86
2022/05/02 13:30:21;;;;;;;10.43;7.90;;;;;;;;;;10597352;28;20072;-86
2022/05/02 13:35:27;;;;;;;10.73;6.45;;;;;;;;;;10592553;28;20367;-85
2022/05/02 13:40:42;;;;;;;9.75;5.32;;;;;;;;;;10591274;28;20024;-86
2022/05/02 13:46:04;;;;;;;9.27;6.07;;;;;;;;;;10587346;28;20033;-86
2022/05/02 13:51:05;;;;;;;16.15;6.10;;;;;;;;;;10587331;28;20102;-84
2022/05/02 13:56:18;;;;;;;11.32;8.98;;;;;;;;;;10598721;28;20035;-85
2022/05/02 14:01:39;;;;;;;9.15;5.55;;;;;;;;;;10592689;28;20034;-86
2022/05/02 14:06:59;;;;;;;6.43;4.57;;;;;;;;;;10613647;28;20469;-85
2022/05/02 14:12:00;;;;;;;5.50;4.68;;;;;;;;;;10589063;28;20059;-85
2022/05/02 14:17:01;;;;;;;6.70;4.75;;;;;;;;;;10592551;28;20060;-86
2022/05/02 14:22:05;;;;;;;8.35;5.22;;;;;;;;;;10597588;28;20199;-83
2022/05/02 14:27:06;;;;;;;7.78;5.95;;;;;;;;;;10601335;28;20023;-83
2022/05/02 14:32:08;;;;;;;8.43;5.72;;;;;;;;;;10603271;28;20168;-85
2022/05/02 14:37:10;;;;;;;6.18;4.97;;;;;;;;;;10602024;28;20024;-83
2022/05/02 14:42:12;;;;;;;7.20;5.65;;;;;;;;;;10601300;28;20024;-82
2022/05/02 14:47:16;;;;;;;5.20;4.70;;;;;;;;;;10604039;28;20019;-85
2022/05/02 14:52:18;;;;;;;7.22;4.82;;;;;;;;;;10600182;28;20027;-86
2022/05/02 14:57:22;;;;;;;5.78;4.68;;;;;;;;;;10600996;28;20038;-85
2022/05/02 15:02:28;;;;;;;4.82;4.20;;;;;;;;;;10538745;22;20380;-79
2022/05/02 15:07:33;;;;;;;6.28;4.75;;;;;;;;;;10511113;28;20029;-78
2022/05/02 15:12:47;;;;;;;6.63;4.03;;;;;;;;;;10469771;28;20060;-79
2022/05/02 15:17:57;;;;;;;6.65;4.75;;;;;;;;;;10485680;28;20028;-79
2022/05/02 15:23:02;;;;;;;6.03;4.80;;;;;;;;;;10486619;28;20036;-77
2022/05/02 15:38:43;;;;;;;;;;;;;;;;;;10478648;28;20033;-80
2022/05/02 15:43:51;;;;;;;5.30;4.80;;;;;;;;;;10473344;28;19904;-79
2022/05/02 15:49:05;;;;;;;5.60;4.60;;;;;;;;;;10487393;28;20382;-80
2022/05/02 15:54:18;;;;;;;6.22;5.30;;;;;;;;;;10486954;28;20067;-79
2022/05/02 15:59:28;;;;;;;9.18;4.72;;;;;;;;;;10470016;28;20499;-80
2022/05/02 16:04:31;;;;;;;5.72;4.03;;;;;;;;;;10494969;28;20088;-82
2022/05/02 16:14:54;;;;;;;6.53;4.73;;;;;;;;;;10468030;28;20032;-80
2022/05/02 16:19:55;;;;;;;5.82;5.22;;;;;;;;;;10468300;28;20093;-79
2022/05/02 16:25:01;;;;;;;5.43;4.43;;;;;;;;;;10471830;28;20112;-79
2022/05/02 16:30:07;;;;;;;8.60;6.40;;;;;;;;;;10483845;28;20052;-81
2022/05/02 16:35:09;;;;;;;7.72;6.95;;;;;;;;;;10485097;28;20029;-80
2022/05/02 16:40:16;;;;;;;7.80;6.20;;;;;;;;;;10484766;28;20101;-79
2022/05/02 16:45:17;;;;;;;6.93;5.10;;;;;;;;;;10469594;28;20013;-80
2022/05/02 16:50:32;;;;;;;4.40;4.00;;;;;;;;;;10488017;28;20031;-81
2022/05/02 16:55:33;;;;;;;5.05;4.30;;;;;;;;;;10479960;28;20040;-80
2022/05/02 17:00:37;;;;;;;4.72;3.80;;;;;;;;;;10476337;28;20040;-79
2022/05/02 17:05:42;;;;;;;7.85;5.68;;;;;;;;;;10479422;28;20017;-79
2022/05/02 17:10:43;;;;;;;4.70;4.07;;;;;;;;;;10478574;28;20021;-79
2022/05/02 17:15:47;;;;;;;5.85;4.63;;;;;;;;;;10479821;28;20555;-80
2022/05/02 17:20:50;;;;;;;5.30;4.80;;;;;;;;;;10479404;28;20373;-79
2022/05/02 17:25:51;;;;;;;4.88;3.85;;;;;;;;;;10482756;28;20370;-80
2022/05/02 17:30:55;;;;;;;6.60;5.47;;;;;;;;;;10498240;28;20024;-79
2022/05/02 17:35:57;;;;;;;8.48;6.13;;;;;;;;;;10510173;28;20033;-81
2022/05/02 17:41:09;;;;;;;5.50;4.47;;;;;;;;;;10488926;28;20025;-81
2022/05/02 17:46:10;;;;;;;5.78;5.07;;;;;;;;;;10485234;28;20025;-80
2022/05/02 17:51:13;;;;;;;6.90;6.13;;;;;;;;;;10486540;28;20036;-81
2022/05/02 17:56:18;;;;;;;7.00;5.65;;;;;;;;;;10490982;28;20047;-80
2022/05/02 18:01:21;;;;;;;6.45;5.85;;;;;;;;;;10485447;28;20048;-81
2022/05/02 18:06:23;;;;;;;6.68;5.85;;;;;;;;;;10485888;28;20060;-80
2022/05/02 18:17:00;;;;;;;4.70;4.20;;;;;;;;;;10469358;28;20033;-80
2022/05/02 18:22:04;;;;;;;7.85;5.07;;;;;;;;;;10481821;28;20029;-80
2022/05/02 18:27:12;;;;;;;5.53;4.55;;;;;;;;;;10466972;28;20096;-80
2022/05/02 18:32:23;;;;;;;6.65;3.78;;;;;;;;;;10485351;28;20032;-80
2022/05/02 18:37:26;;;;;;;5.25;4.15;;;;;;;;;;10484726;28;20033;-81
2022/05/02 18:42:28;;;;;;;4.15;3.10;;;;;;;;;;10483506;28;20480;-80
2022/05/02 18:53:08;;;;;;;3.85;3.10;;;;;;;;;;10472014;28;20033;-81
2022/05/02 18:58:12;;;;;;;;;;;;;;;;;;10484510;28;20483;-80
2022/05/02 19:03:13;;;;;;;3.85;3.50;;;;;;;;;;10466494;28;19908;-79
2022/05/02 19:08:20;;;;;;;6.25;3.75;;;;;;;;;;10485364;28;20025;-79
2022/05/02 19:13:25;;;;;;;5.10;4.60;;;;;;;;;;10473816;28;20112;-79
2022/05/02 19:18:26;;;;;;;3.88;3.28;;;;;;;;;;10490030;28;20048;-80
2022/05/02 19:23:36;;;;;;;4.25;3.85;;;;;;;;;;10484961;28;20025;-80
